Time;durP1;ratioP1;P1;durP2;ratioP2;P2;SDS_P1;SDS_P2;PMS_P1;PMS_P2;Temp;Humidity;BMP_temperature;BMP_pressure;BME280_temperature;BME280_humidity;BME280_pressure;Samples;Min_cycle;Max_cycle;Signal;HPM_P1;HPM_P2
2022/07/29 00:01:52;;;;;;;10.47;9.40;;;;;;;23.07;80.62;95039.38;5052693;28;20438;-80
2022/07/29 00:04:19;;;;;;;9.80;8.90;;;;;;;22.90;79.77;95038.13;5052996;28;20491;-79
2022/07/29 00:06:45;;;;;;;10.40;9.40;;;;;;;22.79;79.89;95036.00;5054783;28;20457;-79
2022/07/29 00:09:12;;;;;;;11.27;10.03;;;;;;;22.72;81.05;95033.31;5056072;28;20774;-79
2022/07/29 00:11:40;;;;;;;9.87;8.93;;;;;;;22.73;82.70;95026.09;5056282;28;20461;-80
2022/07/29 00:14:07;;;;;;;14.90;9.77;;;;;;;22.51;81.91;95028.91;5056346;28;20464;-81
2022/07/29 00:16:34;;;;;;;13.27;11.50;;;;;;;22.42;82.43;95037.31;5056099;28;20437;-80
2022/07/29 00:19:01;;;;;;;11.70;10.60;;;;;;;;;;5056268;28;20924;-79
2022/07/29 00:21:27;;;;;;;11.00;9.87;;;;;;;22.32;83.64;95031.50;5056439;28;20457;-79
2022/07/29 00:23:54;;;;;;;10.93;9.87;;;;;;;22.32;86.05;95039.53;5055891;28;20980;-80
2022/07/29 00:26:21;;;;;;;12.70;9.97;;;;;;;22.31;84.45;95030.69;5056362;28;20832;-80
2022/07/29 00:28:49;;;;;;;16.30;11.20;;;;;;;22.43;84.12;95045.13;5056416;28;20450;-79
2022/07/29 00:31:16;;;;;;;10.67;9.67;;;;;;;22.47;82.35;95038.34;5055921;28;20449;-80
2022/07/29 00:33:43;;;;;;;10.33;9.37;;;;;;;22.56;82.47;95039.03;5055717;28;20449;-80
2022/07/29 00:36:08;;;;;;;20.53;9.63;;;;;;;22.62;82.36;95035.53;5055472;28;20445;-80
2022/07/29 00:38:35;;;;;;;13.23;9.57;;;;;;;22.63;81.05;95034.50;5055044;28;20965;-80
2022/07/29 00:41:02;;;;;;;13.67;10.00;;;;;;;22.44;81.11;95029.91;5055390;28;20215;-81
2022/07/29 00:43:29;;;;;;;12.33;11.23;;;;;;;22.23;82.25;95028.97;5054893;28;20481;-80
2022/07/29 00:45:57;;;;;;;10.80;9.70;;;;;;;22.28;84.24;95032.94;5055087;28;20442;-80
2022/07/29 00:48:24;;;;;;;12.33;9.90;;;;;;;22.41;84.69;95036.47;5036657;28;20861;-79
2022/07/29 00:50:51;;;;;;;10.40;9.40;;;;;;;22.54;83.57;95041.03;5055672;28;20457;-81
2022/07/29 00:53:18;;;;;;;11.40;9.63;;;;;;;22.54;82.42;95038.38;5055367;28;20515;-81
2022/07/29 00:55:45;;;;;;;12.73;11.20;;;;;;;22.55;82.80;95040.03;5055430;28;20932;-80
2022/07/29 00:58:13;;;;;;;12.40;10.70;;;;;;;22.64;83.36;95038.84;5055282;28;20453;-80
2022/07/29 01:00:41;;;;;;;9.33;8.53;;;;;;;22.81;83.94;95040.16;5054911;28;21023;-80
2022/07/29 01:03:09;;;;;;;11.90;9.33;;;;;;;22.81;80.50;95040.16;5055125;28;20581;-80
2022/07/29 01:05:37;;;;;;;11.63;9.33;;;;;;;22.72;80.60;95048.53;5055130;28;20462;-80
2022/07/29 01:08:04;;;;;;;11.03;9.83;;;;;;;22.61;80.73;95036.56;5055561;28;20503;-79
2022/07/29 01:10:31;;;;;;;10.30;9.23;;;;;;;22.29;81.62;95026.56;5036450;28;20933;-80
2022/07/29 01:13:00;;;;;;;17.90;10.27;;;;;;;22.21;83.50;95031.03;5054984;28;20948;-79
2022/07/29 01:15:28;;;;;;;15.10;9.83;;;;;;;22.21;84.47;95022.19;5055137;28;20519;-80
2022/07/29 01:18:02;;;;;;;11.47;10.37;;;;;;;22.32;84.52;95020.81;5055107;28;20457;-80
2022/07/29 01:20:49;;;;;;;11.80;10.70;;;;;;;22.43;82.59;95026.41;5054805;28;20954;-81
2022/07/29 01:23:57;;;;;;;11.43;9.47;;;;;;;22.38;81.49;95031.53;5054974;28;20489;-80
2022/07/29 01:26:36;;;;;;;10.23;8.80;;;;;;;22.19;82.51;95025.06;4973930;28;20966;-80
2022/07/29 01:29:08;;;;;;;10.47;9.57;;;;;;;22.13;82.46;95028.53;4973906;28;20840;-80
2022/07/29 01:31:44;;;;;;;11.10;9.90;;;;;;;22.08;83.47;95025.63;4973964;28;20454;-81
2022/07/29 01:34:17;;;;;;;12.00;9.67;;;;;;;22.04;83.58;95031.56;4973514;28;20547;-80
2022/07/29 01:36:48;;;;;;;10.67;9.57;;;;;;;21.99;84.13;95024.13;4973377;28;20450;-79
2022/07/29 01:39:28;;;;;;;11.40;10.30;;;;;;;21.94;84.59;95023.84;4973546;28;20461;-79
2022/07/29 01:42:06;;;;;;;11.53;10.17;;;;;;;21.94;85.11;95024.69;4973462;28;20444;-80
2022/07/29 01:44:38;;;;;;;10.70;9.70;;;;;;;21.99;84.84;95013.44;4973375;28;20642;-81
2022/07/29 01:47:12;;;;;;;10.07;9.07;;;;;;;22.06;84.28;95011.66;4973628;28;20449;-82
2022/07/29 01:49:44;;;;;;;10.53;9.47;;;;;;;22.21;86.98;95012.31;4973250;28;20527;-79
2022/07/29 01:52:19;;;;;;;11.70;10.60;;;;;;;22.21;84.31;95006.97;4973500;28;20449;-81
2022/07/29 01:54:52;;;;;;;11.20;10.10;;;;;;;22.00;83.48;95012.41;4973539;28;20818;-80
2022/07/29 01:57:22;;;;;;;11.27;10.20;;;;;;;21.63;84.20;94993.06;4973294;28;20444;-80
2022/07/29 01:59:52;;;;;;;11.20;10.03;;;;;;;21.67;86.35;95014.03;4972974;28;20581;-79
2022/07/29 02:02:20;;;;;;;10.50;9.50;;;;;;;21.67;86.01;95006.00;4932153;28;20432;-81
2022/07/29 02:04:50;;;;;;;13.20;9.93;;;;;;;21.65;85.61;95008.88;5053857;28;20481;-80
2022/07/29 02:07:20;;;;;;;11.67;9.63;;;;;;;21.27;87.08;94997.72;5054036;28;20926;-80
2022/07/29 02:09:50;;;;;;;12.03;9.50;;;;;;;21.25;87.48;95005.09;5054329;28;20819;-80
2022/07/29 02:12:18;;;;;;;11.13;10.10;;;;;;;21.15;89.02;94996.56;5018939;28;20793;-79
2022/07/29 02:14:48;;;;;;;10.40;9.40;;;;;;;20.96;89.44;94988.19;5068397;28;20804;-81
2022/07/29 02:17:23;;;;;;;12.30;11.03;;;;;;;20.99;93.12;94993.13;5054340;28;20438;-80
2022/07/29 02:19:51;;;;;;;13.33;10.53;;;;;;;21.24;93.46;94990.09;5054243;28;20449;-80
2022/07/29 02:22:20;;;;;;;10.60;9.60;;;;;;;21.48;90.48;94986.19;5054389;28;20900;-80
2022/07/29 02:24:49;;;;;;;8.77;8.00;;;;;;;21.74;89.03;94985.53;5053312;28;20485;-81
2022/07/29 02:27:18;;;;;;;9.73;8.90;;;;;;;21.79;86.27;94994.59;5053650;28;20449;-82
2022/07/29 02:29:47;;;;;;;10.57;9.40;;;;;;;21.94;88.79;94991.78;5053627;28;20441;-83
2022/07/29 02:32:16;;;;;;;12.40;9.90;;;;;;;22.09;85.56;94991.72;5053709;28;20449;-80
2022/07/29 02:34:45;;;;;;;9.80;8.83;;;;;;;22.18;84.45;94988.66;5053956;28;20449;-81
2022/07/29 02:37:13;;;;;;;12.23;8.93;;;;;;;22.20;83.64;94996.47;5053837;28;20441;-80
2022/07/29 02:39:43;;;;;;;9.73;8.93;;;;;;;22.01;83.50;94998.03;5053685;28;20928;-80
2022/07/29 02:42:14;;;;;;;10.83;9.83;;;;;;;21.99;85.55;94992.06;5053466;28;20806;-80
2022/07/29 02:44:40;;;;;;;10.77;9.27;;;;;;;21.89;84.21;94989.72;5053181;28;21024;-80
2022/07/29 02:47:14;;;;;;;9.97;8.97;;;;;;;21.91;85.22;94989.53;5053371;28;20500;-80
2022/07/29 02:49:51;;;;;;;12.07;9.50;;;;;;;22.02;86.50;94978.28;5053457;28;20445;-81
2022/07/29 02:52:23;;;;;;;12.33;9.37;;;;;;;22.14;83.91;94990.09;5053016;28;20457;-82
2022/07/29 02:54:54;;;;;;;15.67;11.33;;;;;;;22.13;83.59;94984.94;5053568;28;20442;-81
2022/07/29 02:57:27;;;;;;;11.63;10.30;;;;;;;21.88;84.66;94982.72;5053213;28;20457;-81
2022/07/29 02:59:58;;;;;;;11.20;10.20;;;;;;;21.93;86.03;94984.81;5053186;28;20474;-81
2022/07/29 03:02:28;;;;;;;13.20;10.20;;;;;;;21.86;84.89;94992.78;5053664;28;20465;-84
2022/07/29 03:04:58;;;;;;;12.10;10.80;;;;;;;21.86;84.76;94994.63;5067585;28;20481;-81
2022/07/29 03:07:26;;;;;;;13.90;9.60;;;;;;;21.92;85.66;94983.16;5053661;28;20445;-81
2022/07/29 03:09:53;;;;;;;14.30;10.80;;;;;;;21.95;85.45;94988.09;5067347;28;20918;-82
2022/07/29 03:12:21;;;;;;;12.80;11.20;;;;;;;21.90;85.04;94982.53;5053451;28;20496;-82
2022/07/29 03:14:49;;;;;;;12.27;10.40;;;;;;;21.75;85.35;94988.00;5053291;28;20453;-79
2022/07/29 03:17:16;;;;;;;13.13;11.73;;;;;;;21.62;86.30;94979.91;5053807;28;20514;-84
2022/07/29 03:19:43;;;;;;;14.87;12.97;;;;;;;21.63;87.03;94979.69;5053289;28;20880;-80
2022/07/29 03:22:12;;;;;;;12.97;11.43;;;;;;;21.67;87.25;94982.78;5053466;28;20496;-81
2022/07/29 03:24:39;;;;;;;18.10;11.97;;;;;;;21.72;86.37;94987.56;5052618;28;20485;-80
2022/07/29 03:27:06;;;;;;;14.50;12.43;;;;;;;21.75;86.80;94988.00;5067474;28;20446;-84
2022/07/29 03:29:33;;;;;;;17.70;12.90;;;;;;;21.81;86.52;94991.72;5052857;28;20457;-81
2022/07/29 03:32:02;;;;;;;15.23;12.30;;;;;;;21.87;86.41;94985.59;5068449;28;20756;-81
2022/07/29 03:34:28;;;;;;;14.83;13.33;;;;;;;21.98;86.51;94990.41;5072958;28;20451;-82
2022/07/29 03:36:55;;;;;;;17.43;12.87;;;;;;;22.10;85.12;94991.50;5073076;28;20441;-82
2022/07/29 03:39:28;;;;;;;16.80;13.37;;;;;;;22.03;84.61;94993.31;5073341;28;20448;-81
2022/07/29 03:41:58;;;;;;;18.77;12.80;;;;;;;21.81;85.18;94997.06;5039977;28;20448;-82
2022/07/29 03:44:28;;;;;;;17.60;13.20;;;;;;;21.65;85.79;94983.00;5076740;28;20487;-82
2022/07/29 03:46:59;;;;;;;15.23;11.33;;;;;;;21.54;86.70;94980.06;5076419;28;20480;-84
2022/07/29 03:49:27;;;;;;;17.23;12.60;;;;;;;21.47;87.35;94992.53;5075939;28;20539;-80
2022/07/29 03:51:54;;;;;;;15.90;11.90;;;;;;;21.36;87.95;94996.56;5057962;28;20433;-78
2022/07/29 03:54:21;;;;;;;18.00;11.97;;;;;;;21.27;88.52;94995.88;5076791;28;20440;-83
2022/07/29 03:56:52;;;;;;;13.40;12.00;;;;;;;21.28;89.12;94994.84;5076806;28;20847;-81
2022/07/29 03:59:21;;;;;;;14.33;12.40;;;;;;;21.27;89.26;94995.88;5076148;28;20476;-81
2022/07/29 04:01:49;;;;;;;19.93;12.40;;;;;;;21.47;91.21;94998.72;5076745;28;20433;-82
2022/07/29 04:04:16;;;;;;;11.47;10.20;;;;;;;21.93;87.86;95000.84;5075694;28;20845;-82
2022/07/29 04:06:44;;;;;;;15.80;11.80;;;;;;;22.27;86.24;95012.56;5076085;28;20785;-84
2022/07/29 04:09:12;;;;;;;13.27;11.30;;;;;;;22.57;84.16;95003.22;5076519;28;20480;-84
2022/07/29 04:11:40;;;;;;;16.53;12.20;;;;;;;22.71;82.98;95007.56;5075282;28;20459;-83
2022/07/29 04:14:08;;;;;;;21.83;13.23;;;;;;;22.74;82.93;95009.84;5074675;28;20931;-84
2022/07/29 04:16:35;;;;;;;24.00;12.80;;;;;;;22.66;82.71;95015.38;5074892;28;20482;-83
2022/07/29 04:19:02;;;;;;;14.77;12.93;;;;;;;22.55;84.05;95007.94;5074844;28;20457;-86
2022/07/29 04:21:29;;;;;;;17.93;14.60;;;;;;;22.48;84.26;95007.09;5074538;28;20444;-84
2022/07/29 04:23:55;;;;;;;12.73;10.63;;;;;;;22.59;88.35;95005.69;5074396;28;20476;-79
2022/07/29 04:26:22;;;;;;;13.43;10.50;;;;;;;22.83;83.47;95003.31;5074557;28;20445;-83
2022/07/29 04:28:49;;;;;;;11.13;9.97;;;;;;;23.05;81.41;95011.16;5074490;28;20919;-85
2022/07/29 04:31:17;;;;;;;11.83;8.77;;;;;;;23.22;80.11;95001.72;5074590;28;20851;-80
2022/07/29 04:33:44;;;;;;;9.20;8.27;;;;;;;23.69;79.93;95010.59;5074632;28;20441;-81
2022/07/29 04:36:11;;;;;;;9.50;7.23;;;;;;;24.09;75.26;95020.22;5039326;28;20448;-83
2022/07/29 04:38:39;;;;;;;12.77;7.73;;;;;;;24.54;74.03;95012.25;5075537;28;20511;-85
2022/07/29 04:41:08;;;;;;;11.13;7.77;;;;;;;25.03;79.54;95010.78;5075416;28;20437;-87
2022/07/29 04:43:35;;;;;;;12.67;7.23;;;;;;;25.67;72.55;95025.00;5075597;28;20943;-83
2022/07/29 04:46:02;;;;;;;8.30;7.50;;;;;;;26.09;68.68;95026.06;5075805;28;20433;-81
2022/07/29 04:48:30;;;;;;;9.90;7.20;;;;;;;26.47;68.47;95028.56;5075795;28;20429;-84
2022/07/29 04:50:57;;;;;;;8.87;6.60;;;;;;;26.74;65.76;95037.97;5075330;28;20442;-81
2022/07/29 04:53:24;;;;;;;8.70;7.33;;;;;;;27.06;67.57;95030.53;5056860;28;20444;-80
2022/07/29 04:55:51;;;;;;;7.40;6.43;;;;;;;27.31;64.91;95029.56;5074620;28;20445;-82
2022/07/29 04:58:18;;;;;;;9.00;7.23;;;;;;;27.59;65.09;95028.91;5074908;28;21882;-82
2022/07/29 05:00:45;;;;;;;7.70;6.23;;;;;;;27.93;60.00;95036.25;5075191;28;20846;-81
2022/07/29 05:03:12;;;;;;;9.80;5.67;;;;;;;28.25;59.82;95033.22;5071135;28;20536;-82
2022/07/29 05:05:40;;;;;;;8.03;7.17;;;;;;;28.57;59.52;95039.03;5072907;28;20895;-81
2022/07/29 05:08:07;;;;;;;13.77;7.70;;;;;;;28.80;58.51;95033.56;5075240;28;20536;-84
2022/07/29 05:10:37;;;;;;;11.90;8.60;;;;;;;28.80;56.99;95030.88;5062610;28;20449;-84
2022/07/29 05:13:05;;;;;;;10.13;9.13;;;;;;;28.86;58.47;95029.94;5027188;28;21069;-81
2022/07/29 05:15:32;;;;;;;9.60;8.30;;;;;;;28.92;59.04;95028.19;5064910;28;20478;-84
2022/07/29 05:17:58;;;;;;;8.80;8.00;;;;;;;29.19;57.65;95042.72;5069485;28;20797;-81
2022/07/29 05:20:28;;;;;;;9.40;8.10;;;;;;;29.45;57.20;95037.81;5072023;28;20452;-86
2022/07/29 05:22:56;;;;;;;13.60;8.47;;;;;;;29.73;55.52;95050.47;5060101;28;20506;-87
2022/07/29 05:25:23;;;;;;;12.17;8.80;;;;;;;29.86;54.92;95039.31;5073506;28;20481;-84
2022/07/29 05:27:50;;;;;;;11.47;8.80;;;;;;;29.95;54.38;95037.84;5066251;28;20811;-85
2022/07/29 05:30:17;;;;;;;11.27;8.70;;;;;;;29.99;53.20;95038.16;5073722;28;20958;-87
2022/07/29 05:32:44;;;;;;;9.80;8.10;;;;;;;30.04;53.69;95038.25;5073431;28;20455;-89
2022/07/29 05:35:11;;;;;;;8.40;7.70;;;;;;;30.15;55.11;95045.50;5073303;28;20444;-88
2022/07/29 05:37:38;;;;;;;9.47;8.47;;;;;;;30.33;54.00;95047.09;5073728;28;20459;-82
2022/07/29 05:40:07;;;;;;;8.20;7.47;;;;;;;30.46;53.40;95036.72;5074726;28;20515;-84
2022/07/29 05:42:35;;;;;;;8.47;7.10;;;;;;;30.66;53.20;95038.09;5074364;28;20432;-83
2022/07/29 05:45:03;;;;;;;9.10;8.20;;;;;;;30.92;53.83;95044.63;5074338;28;20545;-85
2022/07/29 05:47:30;;;;;;;8.23;7.53;;;;;;;31.09;52.21;95029.13;5074383;28;20455;-85
2022/07/29 05:49:57;;;;;;;9.00;8.10;;;;;;;31.24;50.04;95040.19;5074651;28;20453;-86
2022/07/29 05:52:24;;;;;;;8.47;7.77;;;;;;;31.02;49.90;95033.94;5074245;28;20448;-83
2022/07/29 05:54:51;;;;;;;8.73;7.13;;;;;;;30.64;51.36;95043.75;5074404;28;20443;-83
2022/07/29 05:57:20;;;;;;;7.87;7.03;;;;;;;30.60;51.33;95037.19;5074217;28;20441;-86
2022/07/29 05:59:47;;;;;;;8.57;7.87;;;;;;;30.63;52.27;95036.69;5074541;28;20464;-85
2022/07/29 06:02:14;;;;;;;9.03;8.17;;;;;;;30.49;51.06;95035.41;5074208;28;20888;-85
2022/07/29 06:04:41;;;;;;;9.40;8.37;;;;;;;30.16;52.54;95036.31;5072049;28;20507;-85
2022/07/29 06:07:08;;;;;;;15.03;8.80;;;;;;;30.02;52.97;95038.47;5072662;28;20452;-85
2022/07/29 06:09:36;;;;;;;9.90;8.20;;;;;;;30.09;53.22;95041.91;5072621;28;20453;-85
2022/07/29 06:12:03;;;;;;;9.00;8.13;;;;;;;30.31;53.63;95043.81;5072711;28;20440;-86
2022/07/29 06:14:32;;;;;;;9.37;8.47;;;;;;;30.48;52.32;95041.91;5072656;28;20441;-85
2022/07/29 06:16:59;;;;;;;8.90;8.03;;;;;;;30.67;52.79;95053.28;5072570;28;20437;-85
2022/07/29 06:19:26;;;;;;;9.30;8.50;;;;;;;30.46;52.77;95038.63;5072461;28;20935;-86
2022/07/29 06:21:52;;;;;;;11.50;8.80;;;;;;;30.45;53.32;95032.38;5072315;28;20453;-88
2022/07/29 06:24:19;;;;;;;8.87;7.87;;;;;;;30.54;52.16;95038.19;5072346;28;20510;-85
2022/07/29 06:26:46;;;;;;;7.70;6.90;;;;;;;30.14;52.64;95044.66;5072730;28;20449;-85
2022/07/29 06:29:13;;;;;;;9.93;8.60;;;;;;;29.98;52.25;95044.66;5053758;28;20518;-85
2022/07/29 06:31:41;;;;;;;11.67;7.60;;;;;;;29.47;53.69;95046.50;5072464;28;20441;-85
2022/07/29 06:34:08;;;;;;;9.17;8.37;;;;;;;29.24;55.54;95039.31;5072435;28;20828;-83
2022/07/29 06:36:36;;;;;;;12.70;7.50;;;;;;;28.99;56.02;95032.38;5072514;28;20444;-83
2022/07/29 06:39:06;;;;;;;8.60;7.83;;;;;;;29.41;58.13;95039.34;5072240;28;20469;-86
2022/07/29 06:41:33;;;;;;;7.93;7.30;;;;;;;29.63;56.00;95034.88;5037547;28;20516;-85
2022/07/29 06:44:00;;;;;;;9.73;7.77;;;;;;;29.88;54.03;95029.06;5071975;28;20445;-85
2022/07/29 06:46:27;;;;;;;7.93;6.83;;;;;;;29.44;54.47;95028.88;5053225;28;20437;-85
2022/07/29 06:48:55;;;;;;;19.33;7.00;;;;;;;29.42;55.07;95030.97;5072040;28;20475;-85
2022/07/29 06:51:23;;;;;;;9.30;7.00;;;;;;;29.58;57.34;95029.41;5072221;28;20439;-84
2022/07/29 06:53:50;;;;;;;7.70;7.10;;;;;;;29.48;55.51;95029.22;5072160;28;20452;-83
2022/07/29 06:56:17;;;;;;;7.93;7.10;;;;;;;28.96;55.05;95022.03;5072199;28;20433;-83
2022/07/29 06:58:44;;;;;;;13.73;7.50;;;;;;;29.23;55.77;95021.47;5071899;28;20484;-84
2022/07/29 07:01:11;;;;;;;6.63;6.13;;;;;;;29.11;57.23;95024.19;5071876;28;20436;-85
2022/07/29 07:03:37;;;;;;;6.60;6.10;;;;;;;28.71;57.34;95015.28;5071928;28;20829;-84
2022/07/29 07:06:06;;;;;;;10.70;8.13;;;;;;;28.77;57.35;95017.03;5071853;28;20481;-84
2022/07/29 07:08:33;;;;;;;7.20;6.67;;;;;;;28.91;57.49;95021.09;5071952;28;20444;-84
2022/07/29 07:10:59;;;;;;;7.77;7.13;;;;;;;29.24;57.34;95018.50;5072058;28;20445;-84
2022/07/29 07:13:27;;;;;;;7.90;7.20;;;;;;;28.92;56.17;95007.38;5071858;28;20440;-85
2022/07/29 07:15:54;;;;;;;6.63;6.13;;;;;;;29.22;56.53;95022.53;5074901;28;20531;-90
2022/07/29 07:18:22;;;;;;;6.97;6.40;;;;;;;29.05;55.94;95013.53;5077449;28;20441;-83
2022/07/29 07:20:48;;;;;;;6.77;6.17;;;;;;;29.28;57.76;95018.84;5077084;28;20409;-84
2022/07/29 07:23:17;;;;;;;9.07;6.53;;;;;;;29.14;56.81;95022.91;5077336;28;20436;-84
2022/07/29 07:25:44;;;;;;;7.37;6.57;;;;;;;29.16;55.49;95026.19;5076992;28;20897;-84
2022/07/29 07:28:11;;;;;;;6.93;5.63;;;;;;;29.25;57.46;95022.84;5077146;28;20551;-85
2022/07/29 07:30:38;;;;;;;6.83;6.13;;;;;;;29.23;54.30;95016.88;5042492;28;20448;-85
2022/07/29 07:33:05;;;;;;;9.70;5.70;;;;;;;28.69;55.35;95012.81;5077277;28;20508;-86
2022/07/29 07:35:32;;;;;;;5.90;5.30;;;;;;;28.87;55.67;95012.66;5077260;28;21000;-85
2022/07/29 07:37:59;;;;;;;8.10;5.50;;;;;;;28.80;55.65;95009.25;5077030;28;20452;-85
2022/07/29 07:40:28;;;;;;;5.63;5.20;;;;;;;28.23;56.44;95013.69;5077483;28;20459;-85
2022/07/29 07:42:54;;;;;;;10.20;6.23;;;;;;;28.20;55.50;95009.59;5075604;28;20456;-86
2022/07/29 07:45:21;;;;;;;5.10;4.70;;;;;;;28.31;55.52;95002.56;5075693;28;20483;-84
2022/07/29 07:47:48;;;;;;;6.23;5.70;;;;;;;28.06;57.13;95000.13;5040491;28;20447;-85
2022/07/29 07:50:17;;;;;;;5.93;5.43;;;;;;;28.09;56.41;95007.75;5075968;28;20490;-86
2022/07/29 07:52:49;;;;;;;7.07;5.77;;;;;;;28.26;56.85;95010.56;5075776;28;21013;-88
2022/07/29 07:55:16;;;;;;;5.90;5.43;;;;;;;28.33;55.02;95003.97;5075252;28;20448;-84
2022/07/29 07:57:45;;;;;;;8.23;5.97;;;;;;;28.77;56.69;94996.22;5075478;28;20436;-88
2022/07/29 08:00:13;;;;;;;5.57;5.07;;;;;;;28.55;55.79;95008.75;5075682;28;20831;-84
2022/07/29 08:02:42;;;;;;;6.30;5.80;;;;;;;28.53;53.30;95000.06;5075739;28;20448;-86
2022/07/29 08:05:10;;;;;;;6.47;5.07;;;;;;;28.62;53.71;95004.03;5075245;28;20541;-86
2022/07/29 08:07:37;;;;;;;6.10;4.80;;;;;;;28.86;53.40;94997.50;5075700;28;20541;-88
2022/07/29 08:10:05;;;;;;;5.37;4.87;;;;;;;29.02;52.54;95003.22;5039853;28;20444;-88
2022/07/29 08:12:31;;;;;;;7.00;6.30;;;;;;;29.37;52.47;95008.44;5076572;28;20521;-87
2022/07/29 08:15:00;;;;;;;15.03;5.90;;;;;;;29.72;51.55;95000.13;5076573;28;20440;-88
2022/07/29 08:17:27;;;;;;;5.40;5.00;;;;;;;29.89;49.82;95001.78;5076383;28;20910;-87
2022/07/29 08:19:54;;;;;;;5.23;4.87;;;;;;;30.12;50.66;95003.50;5076129;28;20495;-88
2022/07/29 08:22:21;;;;;;;7.10;5.97;;;;;;;30.43;51.35;95001.22;5076424;28;20449;-87
2022/07/29 08:24:54;;;;;;;7.30;5.20;;;;;;;30.54;48.12;95000.25;5075879;28;20480;-87
2022/07/29 08:27:21;;;;;;;5.30;4.80;;;;;;;30.66;47.67;94994.75;5075664;28;20514;-86
2022/07/29 08:29:48;;;;;;;6.60;5.00;;;;;;;30.72;47.98;94988.31;5076243;28;20453;-87
2022/07/29 08:32:17;;;;;;;8.90;5.37;;;;;;;30.98;47.52;94995.69;5076315;28;20432;-88
2022/07/29 08:34:45;;;;;;;4.83;4.50;;;;;;;31.12;48.21;94991.47;5076541;28;20445;-85
2022/07/29 08:37:13;;;;;;;5.03;4.63;;;;;;;31.32;44.47;94990.91;5075937;28;21022;-81
2022/07/29 08:39:39;;;;;;;4.87;4.47;;;;;;;31.34;45.02;94982.50;5075948;28;20925;-84
2022/07/29 08:42:07;;;;;;;6.03;4.57;;;;;;;31.18;42.94;94994.25;5075733;28;20447;-84
2022/07/29 08:44:35;;;;;;;4.67;4.30;;;;;;;31.12;43.60;94988.75;5040608;28;20531;-85
2022/07/29 08:47:02;;;;;;;5.10;4.67;;;;;;;30.96;43.59;94986.16;5075907;28;20429;-91
2022/07/29 08:49:30;;;;;;;5.00;4.60;;;;;;;31.09;46.28;94985.75;5075857;28;20459;-88
2022/07/29 08:51:59;;;;;;;8.27;4.93;;;;;;;31.32;50.47;94992.78;5075622;28;20448;-84
2022/07/29 08:54:26;;;;;;;4.83;4.53;;;;;;;31.52;44.05;94979.41;5075779;28;20436;-85
2022/07/29 08:56:53;;;;;;;4.93;4.33;;;;;;;31.80;45.80;94989.13;5075862;28;20450;-87
2022/07/29 08:59:22;;;;;;;5.30;5.00;;;;;;;32.01;46.58;94987.41;5076007;28;20484;-87
2022/07/29 09:01:53;;;;;;;5.23;4.83;;;;;;;32.20;44.22;94977.75;5075599;28;20450;-87
2022/07/29 09:04:20;;;;;;;5.40;5.00;;;;;;;32.31;43.47;94981.34;5075371;28;20453;-88
2022/07/29 09:06:52;;;;;;;6.73;4.63;;;;;;;32.26;41.02;94971.28;5075570;28;20944;-81
2022/07/29 09:09:19;;;;;;;5.67;5.10;;;;;;;32.27;44.45;94970.22;5075763;28;20487;-83
2022/07/29 09:11:46;;;;;;;6.10;5.60;;;;;;;32.28;42.69;94971.84;5075286;28;20445;-81
2022/07/29 09:14:14;;;;;;;13.93;6.53;;;;;;;32.27;43.06;94974.81;5040276;28;20809;-81
2022/07/29 09:16:52;;;;;;;6.00;5.50;;;;;;;32.17;42.63;94972.84;5075269;28;20477;-83
2022/07/29 09:19:24;;;;;;;6.50;5.80;;;;;;;32.25;43.17;94974.25;5075187;28;20860;-80
2022/07/29 09:21:58;;;;;;;7.80;6.83;;;;;;;32.38;42.97;94972.97;5074829;28;20531;-82
2022/07/29 09:24:27;;;;;;;6.90;6.07;;;;;;;32.15;43.80;94976.91;5074998;28;20444;-81
2022/07/29 09:26:54;;;;;;;10.40;6.30;;;;;;;32.04;45.60;94978.72;5074936;28;20476;-83
2022/07/29 09:29:23;;;;;;;9.63;7.37;;;;;;;32.09;43.75;94969.78;5074788;28;20478;-80
2022/07/29 09:31:51;;;;;;;8.50;7.60;;;;;;;32.22;44.98;94966.63;5074050;28;20812;-82
2022/07/29 09:34:23;;;;;;;5.37;4.70;;;;;;;32.34;44.38;94953.66;5038404;28;20432;-83
2022/07/29 09:36:53;;;;;;;12.53;10.73;;;;;;;32.48;44.85;94965.69;5074496;28;20459;-81
2022/07/29 09:39:29;;;;;;;7.70;7.00;;;;;;;32.19;44.36;94959.00;5073738;28;20433;-83
2022/07/29 09:41:58;;;;;;;8.07;6.07;;;;;;;32.35;42.84;94963.44;5073816;28;20452;-80
2022/07/29 09:44:26;;;;;;;5.47;4.93;;;;;;;32.07;43.79;94964.63;5074418;28;20481;-79
2022/07/29 09:47:05;;;;;;;6.63;6.13;;;;;;;32.04;43.85;94965.97;5074450;28;20485;-84
2022/07/29 09:49:32;;;;;;;9.53;6.70;;;;;;;31.82;43.89;94959.88;5074297;28;20444;-82
2022/07/29 09:52:09;;;;;;;6.93;6.23;;;;;;;31.46;45.42;94950.59;5074785;28;20449;-84
2022/07/29 09:54:40;;;;;;;5.93;5.53;;;;;;;31.34;46.27;94949.94;5073994;28;20502;-82
2022/07/29 09:57:12;;;;;;;7.13;6.53;;;;;;;31.50;46.04;94942.75;5073859;28;20459;-80
2022/07/29 09:59:39;;;;;;;6.70;6.10;;;;;;;31.59;46.42;94941.22;5039538;28;20527;-80
2022/07/29 10:02:13;;;;;;;6.20;5.70;;;;;;;31.24;44.12;94950.69;5073593;28;20448;-80
2022/07/29 10:04:41;;;;;;;6.53;5.93;;;;;;;31.24;44.85;94928.19;5073703;28;20445;-81
2022/07/29 10:07:10;;;;;;;10.83;5.77;;;;;;;31.25;44.54;94941.47;5074120;28;20484;-81
2022/07/29 10:09:37;;;;;;;6.80;6.27;;;;;;;31.30;44.98;94930.66;5073735;28;20771;-80
2022/07/29 10:12:10;;;;;;;6.80;6.30;;;;;;;31.10;46.16;94939.41;5073679;28;20498;-81
2022/07/29 10:14:38;;;;;;;7.27;6.17;;;;;;;31.28;46.50;94921.97;5073004;28;20488;-81
2022/07/29 10:17:07;;;;;;;7.50;6.20;;;;;;;31.34;44.73;94928.25;5073183;28;20449;-80
2022/07/29 10:19:35;;;;;;;6.87;6.33;;;;;;;31.43;45.41;94922.09;5073015;28;20447;-79
2022/07/29 10:22:04;;;;;;;6.87;5.93;;;;;;;31.53;44.70;94926.78;5072870;28;20444;-80
2022/07/29 10:24:33;;;;;;;10.20;6.80;;;;;;;31.68;46.88;94916.03;5072917;28;20806;-79
2022/07/29 10:27:03;;;;;;;11.10;5.13;;;;;;;31.65;43.46;94913.84;5072897;28;20488;-78
2022/07/29 10:29:31;;;;;;;8.90;6.67;;;;;;;31.67;45.39;94910.88;5072489;28;20452;-78
2022/07/29 10:32:15;;;;;;;6.83;6.13;;;;;;;31.73;44.68;94901.72;5072672;28;20456;-78
2022/07/29 10:34:57;;;;;;;9.10;5.60;;;;;;;31.73;44.61;94897.09;5039073;28;20445;-79
2022/07/29 10:37:34;;;;;;;5.17;4.80;;;;;;;31.43;44.03;94907.72;5072725;28;20478;-78
2022/07/29 10:42:54;;;;;;;4.87;4.57;;;;;;;31.66;46.40;94906.53;5072609;28;20437;-78
2022/07/29 10:45:22;;;;;;;6.20;4.77;;;;;;;31.60;44.01;94894.00;5054251;28;21717;-78
2022/07/29 10:47:49;;;;;;;6.77;5.00;;;;;;;31.55;42.31;94891.25;5072957;28;20453;-78
2022/07/29 10:50:16;;;;;;;6.73;5.20;;;;;;;31.52;42.39;94891.78;5072838;28;20453;-80
2022/07/29 10:52:57;;;;;;;6.83;5.43;;;;;;;31.45;43.34;94892.00;5072849;28;20938;-81
2022/07/29 10:55:39;;;;;;;6.10;5.30;;;;;;;31.06;42.85;94886.78;5011164;28;20452;-78
2022/07/29 10:58:14;;;;;;;5.40;5.10;;;;;;;31.12;41.00;94887.63;5010443;28;20542;-80
2022/07/29 11:00:42;;;;;;;5.77;5.27;;;;;;;31.06;41.90;94884.06;5011260;28;20440;-78
2022/07/29 11:03:09;;;;;;;6.57;5.03;;;;;;;31.06;42.93;94885.97;5011051;28;20459;-79
2022/07/29 11:05:57;;;;;;;8.33;6.10;;;;;;;31.10;44.94;94878.94;5010964;28;20958;-79
2022/07/29 11:08:25;;;;;;;7.50;6.27;;;;;;;31.24;43.08;94880.19;4971613;28;20453;-78
2022/07/29 11:11:09;;;;;;;7.20;6.60;;;;;;;31.25;42.15;94887.25;4972021;28;20479;-78
2022/07/29 11:13:51;;;;;;;5.90;5.40;;;;;;;31.26;42.21;94879.94;4971193;28;20534;-80
2022/07/29 11:16:21;;;;;;;6.40;5.77;;;;;;;31.22;45.10;94874.19;4971767;28;20761;-83
2022/07/29 11:19:24;;;;;;;7.93;5.70;;;;;;;31.22;42.85;94876.06;4971913;28;20598;-78
2022/07/29 11:21:52;;;;;;;5.83;5.40;;;;;;;31.29;43.78;94866.66;4895451;29;20460;-80
2022/07/29 11:24:23;;;;;;;5.80;5.20;;;;;;;31.43;43.93;94864.31;4865230;29;20552;-79
2022/07/29 11:27:22;;;;;;;8.33;5.93;;;;;;;31.44;40.16;94864.03;4895115;29;20484;-80
2022/07/29 11:29:52;;;;;;;5.83;5.23;;;;;;;31.50;39.91;94862.19;4895297;29;20548;-80
2022/07/29 11:32:20;;;;;;;6.20;5.07;;;;;;;31.46;41.73;94849.41;4914232;29;20531;-80
2022/07/29 11:34:48;;;;;;;10.53;6.50;;;;;;;31.49;40.93;94849.69;4952074;29;20775;-78
2022/07/29 11:37:21;;;;;;;12.90;6.17;;;;;;;31.51;40.32;94847.53;4952345;29;20474;-79
2022/07/29 11:40:09;;;;;;;6.17;5.60;;;;;;;31.66;39.97;94853.06;4951995;29;20450;-80
2022/07/29 11:42:43;;;;;;;6.57;6.00;;;;;;;31.75;39.91;94856.13;4920359;29;20550;-79